createdAt,value
2022-09-02T00:01:29.008Z,14.41
2022-09-02T00:04:00.240Z,14.43
2022-09-02T00:06:29.993Z,14.41
2022-09-02T00:08:58.453Z,14.44
2022-09-02T00:11:29.245Z,14.43
2022-09-02T00:13:57.935Z,14.36
2022-09-02T00:16:27.554Z,14.35
2022-09-02T00:18:56.480Z,14.32
2022-09-02T00:21:25.572Z,14.20
2022-09-02T00:23:54.420Z,14.31
2022-09-02T00:26:23.179Z,14.33
2022-09-02T00:28:55.961Z,14.31
2022-09-02T00:31:25.522Z,14.27
2022-09-02T00:33:54.819Z,14.24
2022-09-02T00:36:22.998Z,14.27
2022-09-02T00:38:50.979Z,14.21
2022-09-02T00:41:22.466Z,14.18
2022-09-02T00:43:53.155Z,14.14
2022-09-02T00:46:24.066Z,14.10
2022-09-02T00:48:59.579Z,14.06
2022-09-02T00:51:30.150Z,14.07
2022-09-02T00:53:58.227Z,14.03
2022-09-02T00:56:30.999Z,14.00
2022-09-02T00:59:01.036Z,13.96
2022-09-02T01:01:29.628Z,13.96
2022-09-02T01:03:59.523Z,13.91
2022-09-02T01:06:32.941Z,13.94
2022-09-02T01:09:08.482Z,13.89
2022-09-02T01:11:43.115Z,13.90
2022-09-02T01:14:13.747Z,13.82
2022-09-02T01:16:45.015Z,13.78
2022-09-02T01:19:21.147Z,13.76
2022-09-02T01:21:50.961Z,13.75
2022-09-02T01:24:21.116Z,13.72
2022-09-02T01:26:52.913Z,13.69
2022-09-02T01:29:22.916Z,13.59
2022-09-02T01:31:51.443Z,13.57
2022-09-02T01:34:19.629Z,13.56
2022-09-02T01:36:48.006Z,13.54
2022-09-02T01:39:18.300Z,13.47
2022-09-02T01:41:46.491Z,13.49
2022-09-02T01:44:16.203Z,13.47
2022-09-02T01:46:46.179Z,13.50
2022-09-02T01:49:15.027Z,13.48
2022-09-02T01:51:42.999Z,13.44
2022-09-02T01:54:12.481Z,13.41
2022-09-02T01:56:41.810Z,13.41
2022-09-02T01:59:11.721Z,13.32
2022-09-02T02:01:39.756Z,13.31
2022-09-02T02:04:12.686Z,13.28
2022-09-02T02:06:43.644Z,13.26
2022-09-02T02:09:12.461Z,13.24
2022-09-02T02:11:41.772Z,13.23
2022-09-02T02:14:09.735Z,13.17
2022-09-02T02:16:38.802Z,13.15
2022-09-02T02:19:07.317Z,13.14
2022-09-02T02:21:35.307Z,13.12
2022-09-02T02:24:03.584Z,13.14
2022-09-02T02:26:31.931Z,13.06
2022-09-02T02:29:01.798Z,13.01
2022-09-02T02:31:30.037Z,13.06
2022-09-02T02:33:58.104Z,13.03
2022-09-02T02:36:26.010Z,12.97
2022-09-02T02:38:53.931Z,12.97
2022-09-02T02:41:22.433Z,12.99
2022-09-02T02:43:50.933Z,12.98
2022-09-02T02:46:20.623Z,12.99
2022-09-02T02:48:49.360Z,12.88
2022-09-02T02:51:17.671Z,12.91
2022-09-02T02:53:47.497Z,12.91
2022-09-02T02:56:15.462Z,12.84
2022-09-02T02:58:43.556Z,12.85
2022-09-02T03:01:11.867Z,12.85
2022-09-02T03:03:42.630Z,12.82
2022-09-02T03:06:10.957Z,12.84
2022-09-02T03:08:38.868Z,12.73
2022-09-02T03:11:08.617Z,12.66
2022-09-02T03:13:40.525Z,12.68
2022-09-02T03:16:08.688Z,12.71
2022-09-02T03:18:36.750Z,12.67
2022-09-02T03:21:10.272Z,12.69
2022-09-02T03:23:38.822Z,12.58
2022-09-02T03:26:11.254Z,12.61
2022-09-02T03:28:40.219Z,12.57
2022-09-02T03:31:14.437Z,12.50
2022-09-02T03:33:42.528Z,12.51
2022-09-02T03:36:23.178Z,12.50
2022-09-02T03:38:52.148Z,12.47
2022-09-02T03:41:20.241Z,12.46
2022-09-02T03:43:49.561Z,12.39
2022-09-02T03:46:18.244Z,12.38
2022-09-02T03:48:47.007Z,12.38
2022-09-02T03:51:15.272Z,12.35
2022-09-02T03:53:44.616Z,12.30
2022-09-02T03:56:15.457Z,12.30
2022-09-02T03:58:44.752Z,12.30
2022-09-02T04:01:15.967Z,12.30
2022-09-02T04:03:44.885Z,12.25
2022-09-02T04:06:14.109Z,12.23
2022-09-02T04:08:45.026Z,12.20
2022-09-02T04:11:16.486Z,12.21
2022-09-02T04:13:47.600Z,12.13
2022-09-02T04:16:21.494Z,12.15
2022-09-02T04:18:49.581Z,12.14
2022-09-02T04:21:17.785Z,12.12
2022-09-02T04:23:47.314Z,12.11
2022-09-02T04:26:18.086Z,12.13
2022-09-02T04:28:46.938Z,12.04
2022-09-02T04:31:17.709Z,12.09
2022-09-02T04:33:46.571Z,12.05
2022-09-02T04:36:19.951Z,12.02
2022-09-02T04:38:51.796Z,12.01
2022-09-02T04:41:24.883Z,12.04
2022-09-02T04:43:57.634Z,11.96
2022-09-02T04:46:34.810Z,11.98
2022-09-02T04:49:06.031Z,12.03
2022-09-02T04:51:34.984Z,11.99
2022-09-02T04:54:08.014Z,12.01
2022-09-02T04:56:38.325Z,12.04
2022-09-02T04:59:07.231Z,12.02
2022-09-02T05:01:38.661Z,12.01
2022-09-02T05:04:13.030Z,11.99
2022-09-02T05:06:47.310Z,12.04
2022-09-02T05:09:23.070Z,12.11
2022-09-02T05:11:57.661Z,12.13
2022-09-02T05:14:29.554Z,12.15
2022-09-02T05:17:07.248Z,12.11
2022-09-02T05:19:37.947Z,12.17
2022-09-02T05:22:06.218Z,12.25
2022-09-02T05:24:39.845Z,12.28
2022-09-02T05:27:11.657Z,12.29
2022-09-02T05:29:42.969Z,12.35
2022-09-02T05:32:13.535Z,12.34
2022-09-02T05:34:41.796Z,12.33
2022-09-02T05:37:10.109Z,12.30
2022-09-02T05:39:39.595Z,12.29
2022-09-02T05:42:08.966Z,12.37
2022-09-02T05:44:38.124Z,12.46
2022-09-02T05:47:07.587Z,12.46
2022-09-02T05:49:35.808Z,12.46
2022-09-02T05:52:11.946Z,12.55
2022-09-02T05:54:51.048Z,12.60
2022-09-02T05:57:21.825Z,12.64
2022-09-02T06:00:02.882Z,12.67
2022-09-02T06:02:42.987Z,12.73
2022-09-02T06:05:29.620Z,12.80
2022-09-02T06:08:06.542Z,12.87
2022-09-02T06:10:36.310Z,12.88
2022-09-02T06:13:04.560Z,12.92
2022-09-02T06:15:34.990Z,12.93
2022-09-02T06:18:03.551Z,13.00
2022-09-02T06:20:34.423Z,13.04
2022-09-02T06:23:04.203Z,13.14
2022-09-02T06:25:32.613Z,13.20
2022-09-02T06:28:06.422Z,13.20
2022-09-02T06:30:40.225Z,13.33
2022-09-02T06:33:09.200Z,13.37
2022-09-02T06:35:39.245Z,13.44
2022-09-02T06:38:10.981Z,13.41
2022-09-02T06:40:48.045Z,13.42
2022-09-02T06:43:18.498Z,13.57
2022-09-02T06:46:15.249Z,13.64
2022-09-02T06:48:44.419Z,13.68
2022-09-02T06:51:17.820Z,13.77
2022-09-02T06:53:48.671Z,13.87
2022-09-02T06:56:18.145Z,13.96
2022-09-02T06:58:47.383Z,13.97
2022-09-02T07:01:20.656Z,14.04
2022-09-02T07:04:06.566Z,14.12
2022-09-02T07:06:36.901Z,14.17
2022-09-02T07:09:06.239Z,14.24
2022-09-02T07:11:35.702Z,14.34
2022-09-02T07:14:07.496Z,14.29
2022-09-02T07:16:39.279Z,14.31
2022-09-02T07:19:12.084Z,14.43
2022-09-02T07:21:42.943Z,14.49
2022-09-02T07:24:13.225Z,14.58
2022-09-02T07:26:43.010Z,14.65
2022-09-02T07:29:12.788Z,14.69
2022-09-02T07:31:43.815Z,14.76
2022-09-02T07:34:13.080Z,14.88
2022-09-02T07:36:42.738Z,14.95
2022-09-02T07:39:12.707Z,15.07
2022-09-02T07:41:42.793Z,15.14
2022-09-02T07:44:13.110Z,15.24
2022-09-02T07:46:42.408Z,15.26
2022-09-02T07:49:22.063Z,15.43
2022-09-02T07:51:52.619Z,15.53
2022-09-02T07:54:26.160Z,15.57
2022-09-02T07:56:56.114Z,15.66
2022-09-02T07:59:26.264Z,15.77
2022-09-02T08:01:58.792Z,15.85
2022-09-02T08:04:27.497Z,15.95
2022-09-02T08:06:57.536Z,16.06
2022-09-02T08:09:25.653Z,16.13
2022-09-02T08:11:53.907Z,16.20
2022-09-02T08:14:29.621Z,16.38
2022-09-02T08:16:59.553Z,16.43
2022-09-02T08:19:28.559Z,16.52
2022-09-02T08:21:57.370Z,16.60
2022-09-02T08:24:25.600Z,16.74
2022-09-02T08:26:53.506Z,16.76
2022-09-02T08:29:25.123Z,16.87
2022-09-02T08:31:54.630Z,16.97
2022-09-02T08:34:22.870Z,17.12
2022-09-02T08:36:56.443Z,17.24
2022-09-02T08:39:25.642Z,17.29
2022-09-02T08:42:03.789Z,17.36
2022-09-02T08:44:35.424Z,17.62
2022-09-02T08:47:07.999Z,17.72
2022-09-02T08:49:40.290Z,17.79
2022-09-02T08:52:08.388Z,17.99
2022-09-02T08:54:43.425Z,18.04
2022-09-02T08:57:12.002Z,18.19
2022-09-02T09:02:21.580Z,18.40
2022-09-02T09:05:19.449Z,18.40
2022-09-02T09:08:00.694Z,18.47
2022-09-02T09:10:38.935Z,18.50
2022-09-02T09:13:42.576Z,18.60
2022-09-02T09:16:18.903Z,18.74
2022-09-02T09:18:56.357Z,18.89
2022-09-02T09:24:01.757Z,19.01
2022-09-02T09:26:33.889Z,19.05
2022-09-02T09:29:05.403Z,19.18
2022-09-02T09:31:35.605Z,19.47
2022-09-02T09:34:07.404Z,19.40
2022-09-02T09:36:46.415Z,19.37
2022-09-02T09:39:26.450Z,19.40
2022-09-02T09:41:56.181Z,19.40
2022-09-02T09:44:44.665Z,19.72
2022-09-02T09:47:19.469Z,19.79
2022-09-02T09:49:50.185Z,19.75
2022-09-02T09:52:28.966Z,19.95
2022-09-02T09:55:22.824Z,19.96
2022-09-02T09:57:54.665Z,20.17
2022-09-02T10:00:27.996Z,20.14
2022-09-02T10:02:58.121Z,20.12
2022-09-02T10:05:34.288Z,20.27
2022-09-02T10:08:04.098Z,20.41
2022-09-02T10:10:38.068Z,20.27
2022-09-02T10:13:22.901Z,20.39
2022-09-02T10:16:02.481Z,20.44
2022-09-02T10:18:36.914Z,20.43
2022-09-02T10:21:14.975Z,20.49
2022-09-02T10:23:53.570Z,20.50
2022-09-02T10:26:33.878Z,20.58
2022-09-02T10:29:42.972Z,20.63
2022-09-02T10:32:39.577Z,20.76
2022-09-02T10:35:13.923Z,20.78
2022-09-02T10:38:16.456Z,20.76
2022-09-02T10:40:47.148Z,20.78
2022-09-02T10:43:29.924Z,20.81
2022-09-02T10:46:01.721Z,20.65
2022-09-02T10:48:42.765Z,20.58
2022-09-02T10:51:21.799Z,20.79
2022-09-02T10:54:04.966Z,20.92
2022-09-02T10:56:39.046Z,20.96
2022-09-02T10:59:11.079Z,20.86
2022-09-02T11:01:46.574Z,21.02
2022-09-02T11:04:21.069Z,21.06
2022-09-02T11:07:03.231Z,21.30
2022-09-02T11:09:37.415Z,21.35
2022-09-02T11:12:11.050Z,21.40
2022-09-02T11:14:51.076Z,21.48
2022-09-02T11:17:24.523Z,21.55
2022-09-02T11:20:00.314Z,21.49
2022-09-02T11:22:37.094Z,21.46
2022-09-02T11:25:09.669Z,21.37
2022-09-02T11:27:43.340Z,21.52
2022-09-02T11:30:14.962Z,21.54
2022-09-02T11:32:48.480Z,21.61
2022-09-02T11:35:24.584Z,21.70
2022-09-02T11:37:57.285Z,21.53
2022-09-02T11:40:34.952Z,21.54
2022-09-02T11:43:23.986Z,21.65
2022-09-02T11:46:27.079Z,21.85
2022-09-02T11:49:17.433Z,21.84
2022-09-02T11:52:32.996Z,21.57
2022-09-02T11:55:09.141Z,21.30
2022-09-02T11:57:41.515Z,21.38
2022-09-02T12:00:15.048Z,21.57
2022-09-02T12:02:46.301Z,21.49
2022-09-02T12:05:51.988Z,21.35
2022-09-02T12:08:57.648Z,21.46
2022-09-02T12:11:45.391Z,21.85
2022-09-02T12:15:06.099Z,21.81
2022-09-02T12:17:40.945Z,22.00
2022-09-02T12:20:11.531Z,22.10
2022-09-02T12:22:40.624Z,22.09
2022-09-02T12:25:47.147Z,22.13
2022-09-02T12:28:21.467Z,22.29
2022-09-02T12:31:15.621Z,22.35
2022-09-02T12:33:45.377Z,22.27
2022-09-02T12:36:47.047Z,22.07
2022-09-02T12:39:46.539Z,22.32
2022-09-02T12:42:24.265Z,22.44
2022-09-02T12:45:02.433Z,22.40
2022-09-02T12:47:44.948Z,22.64
2022-09-02T12:50:23.065Z,22.69
2022-09-02T12:52:52.569Z,22.71
2022-09-02T12:55:25.278Z,22.64
2022-09-02T12:58:06.108Z,22.82
2022-09-02T13:00:40.916Z,22.99
2022-09-02T13:03:29.999Z,23.01
2022-09-02T13:06:05.734Z,23.03
2022-09-02T13:09:30.843Z,22.88
2022-09-02T13:12:25.182Z,22.74
2022-09-02T13:15:06.663Z,22.92
2022-09-02T13:17:48.429Z,23.00
2022-09-02T13:20:57.619Z,23.03
2022-09-02T13:24:07.646Z,23.23
2022-09-02T13:26:53.895Z,23.47
2022-09-02T13:29:53.720Z,23.54
2022-09-02T13:32:24.938Z,23.55
2022-09-02T13:34:56.027Z,23.77
2022-09-02T13:37:36.607Z,23.69
2022-09-02T13:40:17.701Z,23.51
2022-09-02T13:42:49.735Z,23.13
2022-09-02T13:45:23.766Z,22.98
2022-09-02T13:47:53.338Z,22.82
2022-09-02T13:50:24.093Z,22.71
2022-09-02T13:53:45.213Z,22.69
2022-09-02T13:55:50.700Z,22.90
2022-09-02T13:58:32.266Z,23.29
2022-09-02T14:01:19.535Z,23.72
2022-09-02T14:03:50.236Z,23.83
2022-09-02T14:06:20.703Z,23.71
2022-09-02T14:08:54.000Z,23.52
2022-09-02T14:11:23.723Z,23.22
2022-09-02T14:13:52.865Z,22.95
2022-09-02T14:16:29.400Z,22.97
2022-09-02T14:19:09.020Z,23.12
2022-09-02T14:21:38.037Z,23.32
2022-09-02T14:24:06.570Z,23.58
2022-09-02T14:26:39.283Z,23.80
2022-09-02T14:29:09.019Z,24.12
2022-09-02T14:31:37.986Z,24.21
2022-09-02T14:34:25.947Z,23.95
2022-09-02T14:36:54.063Z,23.80
2022-09-02T14:39:22.074Z,23.71
2022-09-02T14:41:53.313Z,23.69
2022-09-02T14:44:28.791Z,23.59
2022-09-02T14:46:59.750Z,23.64
2022-09-02T14:49:31.055Z,23.78
2022-09-02T14:52:00.717Z,23.91
2022-09-02T14:54:37.326Z,24.15
2022-09-02T14:57:08.317Z,24.00
2022-09-02T14:59:36.263Z,23.73
2022-09-02T15:02:04.315Z,23.72
2022-09-02T15:04:35.572Z,23.52
2022-09-02T15:07:03.507Z,23.39
2022-09-02T15:09:31.553Z,23.41
2022-09-02T15:12:02.677Z,23.46
2022-09-02T15:14:32.419Z,23.50
2022-09-02T15:17:00.610Z,23.58
2022-09-02T15:19:28.513Z,23.78
2022-09-02T15:21:56.618Z,23.75
2022-09-02T15:24:24.488Z,23.54
2022-09-02T15:26:52.800Z,23.38
2022-09-02T15:29:25.111Z,23.31
2022-09-02T15:31:59.894Z,23.32
2022-09-02T15:34:28.233Z,23.29
2022-09-02T15:36:57.316Z,23.35
2022-09-02T15:39:25.965Z,23.81
2022-09-02T15:41:55.412Z,23.76
2022-09-02T15:44:25.820Z,23.69
2022-09-02T15:46:54.707Z,24.04
2022-09-02T15:49:24.748Z,24.11
2022-09-02T15:51:54.863Z,24.70
2022-09-02T15:54:25.123Z,24.66
2022-09-02T15:56:56.990Z,24.59
2022-09-02T15:59:25.155Z,24.80
2022-09-02T16:01:55.250Z,25.14
2022-09-02T16:04:24.799Z,25.04
2022-09-02T16:06:53.442Z,25.05
2022-09-02T16:09:21.905Z,25.14
2022-09-02T16:11:52.420Z,25.51
2022-09-02T16:14:21.632Z,25.69
2022-09-02T16:16:50.863Z,25.77
2022-09-02T16:19:20.827Z,25.96
2022-09-02T16:21:50.655Z,26.12
2022-09-02T16:24:21.451Z,26.25
2022-09-02T16:26:50.305Z,26.47
2022-09-02T16:29:19.548Z,26.66
2022-09-02T16:32:02.339Z,26.54
2022-09-02T16:34:38.345Z,26.64
2022-09-02T16:37:07.639Z,26.40
2022-09-02T16:39:35.675Z,26.23
2022-09-02T16:42:04.605Z,26.02
2022-09-02T16:44:34.010Z,25.29
2022-09-02T16:47:02.290Z,25.33
2022-09-02T16:49:30.181Z,24.88
2022-09-02T16:52:00.000Z,25.03
2022-09-02T16:54:31.490Z,24.49
2022-09-02T16:57:01.225Z,24.14
2022-09-02T16:59:31.480Z,23.71
2022-09-02T17:01:59.590Z,23.50
2022-09-02T17:04:27.809Z,23.83
2022-09-02T17:06:57.707Z,24.16
2022-09-02T17:09:25.990Z,23.98
2022-09-02T17:11:55.560Z,23.55
2022-09-02T17:14:23.705Z,23.05
2022-09-02T17:16:52.974Z,22.80
2022-09-02T17:19:22.653Z,22.68
2022-09-02T17:21:52.303Z,22.48
2022-09-02T17:24:22.503Z,22.23
2022-09-02T17:26:54.292Z,22.10
2022-09-02T17:29:48.075Z,21.97
2022-09-02T17:32:13.415Z,21.79
2022-09-02T17:34:41.236Z,21.82
2022-09-02T17:37:09.193Z,21.61
2022-09-02T17:39:37.143Z,21.64
2022-09-02T17:42:05.322Z,21.45
2022-09-02T17:44:38.801Z,21.40
2022-09-02T17:47:09.026Z,21.29
2022-09-02T17:49:38.857Z,21.19
2022-09-02T17:52:08.245Z,21.17
2022-09-02T17:54:37.222Z,20.99
2022-09-02T17:57:17.541Z,20.91
2022-09-02T18:00:02.887Z,20.91
2022-09-02T18:03:19.119Z,20.73
2022-09-02T18:06:00.977Z,20.71
2022-09-02T18:08:36.892Z,20.57
2022-09-02T18:11:07.431Z,20.43
2022-09-02T18:13:48.008Z,20.34
2022-09-02T18:16:30.577Z,20.30
2022-09-02T18:19:13.115Z,20.31
2022-09-02T18:22:05.827Z,20.13
2022-09-02T18:24:52.378Z,20.10
2022-09-02T18:27:31.245Z,20.01
2022-09-02T18:30:06.551Z,20.00
2022-09-02T18:33:06.602Z,19.93
2022-09-02T18:35:45.878Z,19.82
2022-09-02T18:38:28.009Z,19.83
2022-09-02T18:41:11.744Z,19.75
2022-09-02T18:43:51.446Z,19.70
2022-09-02T18:46:22.534Z,19.62
2022-09-02T18:48:56.838Z,19.63
2022-09-02T18:51:35.041Z,19.48
2022-09-02T18:54:13.121Z,19.49
2022-09-02T18:56:46.002Z,19.44
2022-09-02T18:59:17.594Z,19.32
2022-09-02T19:01:54.820Z,19.28
2022-09-02T19:04:29.377Z,19.29
2022-09-02T19:07:17.979Z,19.20
2022-09-02T19:09:45.068Z,19.07
2022-09-02T19:12:14.520Z,19.05
2022-09-02T19:14:42.888Z,18.98
2022-09-02T19:17:12.702Z,18.99
2022-09-02T19:19:42.130Z,18.91
2022-09-02T19:22:12.051Z,18.89
2022-09-02T19:24:43.988Z,18.82
2022-09-02T19:27:16.420Z,18.78
2022-09-02T19:29:51.206Z,18.75
2022-09-02T19:32:25.781Z,18.68
2022-09-02T19:34:55.219Z,18.70
2022-09-02T19:37:23.856Z,18.60
2022-09-02T19:39:54.064Z,18.53
2022-09-02T19:42:24.090Z,18.56
2022-09-02T19:44:52.538Z,18.52
2022-09-02T19:48:04.991Z,18.43
2022-09-02T19:50:10.026Z,18.43
2022-09-02T19:52:42.120Z,18.38
2022-09-02T19:55:11.663Z,18.33
2022-09-02T19:57:39.643Z,18.32
2022-09-02T20:00:09.141Z,18.22
2022-09-02T20:02:40.141Z,18.20
2022-09-02T20:05:11.433Z,18.13
2022-09-02T20:07:39.469Z,18.10
2022-09-02T20:10:08.655Z,18.08
2022-09-02T20:12:37.417Z,18.01
2022-09-02T20:15:07.326Z,18.03
2022-09-02T20:17:35.617Z,17.96
2022-09-02T20:20:13.222Z,17.94
2022-09-02T20:22:41.427Z,17.90
2022-09-02T20:25:10.403Z,17.92
2022-09-02T20:27:54.870Z,17.86
2022-09-02T20:30:23.196Z,17.78
2022-09-02T20:32:58.598Z,17.73
2022-09-02T20:35:49.712Z,17.76
2022-09-02T20:38:50.716Z,17.71
2022-09-02T20:41:29.068Z,17.66
2022-09-02T20:44:31.515Z,17.63
2022-09-02T20:47:24.475Z,17.63
2022-09-02T20:50:15.161Z,17.59
2022-09-02T20:52:58.696Z,17.52
2022-09-02T20:55:32.414Z,17.47
2022-09-02T20:58:17.082Z,17.46
2022-09-02T21:00:59.162Z,17.47
2022-09-02T21:03:31.753Z,17.43
2022-09-02T21:06:01.211Z,17.31
2022-09-02T21:08:40.006Z,17.29
2022-09-02T21:11:14.747Z,17.31
2022-09-02T21:13:50.187Z,17.31
2022-09-02T21:16:28.125Z,17.26
2022-09-02T21:19:06.529Z,17.17
2022-09-02T21:21:40.739Z,17.19
2022-09-02T21:24:15.393Z,17.15
2022-09-02T21:26:49.152Z,16.99
2022-09-02T21:29:21.682Z,17.07
2022-09-02T21:31:54.923Z,16.99
2022-09-02T21:34:28.793Z,16.92
2022-09-02T21:36:58.832Z,16.87
2022-09-02T21:39:32.366Z,16.87
2022-09-02T21:42:11.032Z,16.85
2022-09-02T21:44:53.695Z,16.88
2022-09-02T21:47:25.599Z,16.80
2022-09-02T21:50:07.305Z,16.76
2022-09-02T21:52:49.645Z,16.77
2022-09-02T21:55:32.342Z,16.68
2022-09-02T21:58:19.385Z,16.70
2022-09-02T22:00:54.387Z,16.71
2022-09-02T22:03:37.058Z,16.66
2022-09-02T22:06:12.435Z,16.58
2022-09-02T22:08:50.464Z,16.56
2022-09-02T22:11:27.667Z,16.57
2022-09-02T22:13:59.332Z,16.52
2022-09-02T22:16:39.334Z,16.48
2022-09-02T22:19:09.981Z,16.42
2022-09-02T22:21:48.453Z,16.40
2022-09-02T22:24:17.719Z,16.36
2022-09-02T22:26:52.423Z,16.36
2022-09-02T22:29:29.072Z,16.33
2022-09-02T22:32:01.514Z,16.29
2022-09-02T22:34:34.679Z,16.20
2022-09-02T22:37:07.714Z,16.23
2022-09-02T22:39:40.946Z,16.20
2022-09-02T22:42:21.445Z,16.18
2022-09-02T22:45:12.913Z,16.08
2022-09-02T22:48:03.705Z,16.08
2022-09-02T22:50:56.501Z,16.04
2022-09-02T22:53:24.505Z,16.00
2022-09-02T22:56:03.906Z,16.00
2022-09-02T22:58:47.594Z,15.98
2022-09-02T23:01:20.865Z,16.00
2022-09-02T23:04:00.065Z,15.93
2022-09-02T23:06:30.350Z,15.83
2022-09-02T23:09:08.411Z,15.82
2022-09-02T23:11:44.021Z,15.81
2022-09-02T23:14:26.679Z,15.83
2022-09-02T23:17:23.678Z,15.79
2022-09-02T23:20:07.102Z,15.69
2022-09-02T23:22:49.134Z,15.68
2022-09-02T23:25:53.345Z,15.65
2022-09-02T23:28:32.077Z,15.57
2022-09-02T23:31:09.365Z,15.65
2022-09-02T23:33:54.482Z,15.53
2022-09-02T23:36:35.163Z,15.59
2022-09-02T23:39:15.763Z,15.51
2022-09-02T23:41:47.410Z,15.57
2022-09-02T23:44:16.514Z,15.54
2022-09-02T23:47:11.174Z,15.49
2022-09-02T23:49:46.784Z,15.40
2022-09-02T23:52:26.758Z,15.45
2022-09-02T23:55:05.086Z,15.46
2022-09-02T23:57:58.973Z,15.37
